Time;durP1;ratioP1;P1;durP2;ratioP2;P2;SDS_P1;SDS_P2;PMS_P1;PMS_P2;Temp;Humidity;BMP_temperature;BMP_pressure;BME280_temperature;BME280_humidity;BME280_pressure;Samples;Min_cycle;Max_cycle;Signal;HPM_P1;HPM_P2
2023/04/22 01:03:21;;;;;;;0.38;0.20;;;;;;;7.26;100.00;99725.88;6150733;23;20034;-89
2023/04/22 01:05:47;;;;;;;0.52;0.52;;;;;;;7.12;100.00;99715.88;6126298;23;20712;-89
2023/04/22 01:08:13;;;;;;;0.30;0.17;;;;;;;7.10;100.00;99704.50;6102204;23;20029;-89
2023/04/22 01:10:41;;;;;;;0.00;0.00;;;;;;;7.03;100.00;99715.66;6128968;23;20350;-89
2023/04/22 01:13:07;;;;;;;0.28;0.28;;;;;;;6.94;100.00;99721.72;6128214;23;20099;-89
2023/04/22 01:15:33;;;;;;;1.45;0.82;;;;;;;6.94;100.00;99712.66;6102913;23;20018;-89
2023/04/22 01:18:00;;;;;;;2.85;0.85;;;;;;;6.85;100.00;99723.44;6128382;23;20509;-93
2023/04/22 01:20:28;;;;;;;0.10;0.10;;;;;;;6.76;100.00;99710.19;6104104;23;20457;-93
2023/04/22 01:22:58;;;;;;;0.10;0.10;;;;;;;6.87;100.00;99732.09;6104082;23;20522;-92
2023/04/22 01:25:27;;;;;;;0.82;0.82;;;;;;;6.87;100.00;99732.09;6105554;23;20072;-92
2023/04/22 01:27:53;;;;;;;0.32;0.30;;;;;;;6.84;100.00;99732.91;6129193;23;20463;-91
2023/04/22 01:30:19;;;;;;;0.00;0.00;;;;;;;6.90;100.00;99731.25;6154899;23;20017;-92
2023/04/22 01:32:44;;;;;;;0.88;0.70;;;;;;;6.85;100.00;99726.19;6128294;23;20087;-92
2023/04/22 01:35:10;;;;;;;0.32;0.32;;;;;;;6.83;100.00;99740.41;6105153;23;20020;-92
2023/04/22 01:37:36;;;;;;;0.70;0.70;;;;;;;6.79;100.00;99725.91;6154716;23;20435;-93
2023/04/22 01:40:03;;;;;;;0.63;0.63;;;;;;;6.72;100.00;99722.47;6128159;23;20447;-93
2023/04/22 01:42:29;;;;;;;15.27;1.00;;;;;;;6.73;100.00;99724.03;6129797;23;20024;-93
2023/04/22 01:44:55;;;;;;;0.60;0.60;;;;;;;6.72;100.00;99731.53;6129481;23;20005;-93
2023/04/22 01:47:21;;;;;;;0.43;0.43;;;;;;;6.70;100.00;99733.16;6103498;23;20016;-90
2023/04/22 01:49:46;;;;;;;0.10;0.10;;;;;;;6.71;100.00;99729.19;6128595;23;20009;-93
2023/04/22 01:52:12;;;;;;;1.35;1.23;;;;;;;6.68;100.00;99719.78;6129497;23;20410;-92
2023/04/22 01:54:37;;;;;;;1.27;1.05;;;;;;;6.66;100.00;99715.88;6130851;23;20012;-92
2023/04/22 01:57:09;;;;;;;1.88;1.75;;;;;;;6.56;100.00;99712.09;6130332;23;20009;-93
2023/04/22 01:59:35;;;;;;;0.10;0.10;;;;;;;6.54;100.00;99701.50;6131124;23;20028;-93
2023/04/22 02:02:01;;;;;;;0.50;0.50;;;;;;;6.52;100.00;99725.94;6125185;23;20009;-93
2023/04/22 02:04:26;;;;;;;0.50;0.50;;;;;;;6.49;100.00;99726.00;6101497;23;20022;-89
2023/04/22 02:06:52;;;;;;;0.35;0.35;;;;;;;6.46;100.00;99724.84;6150995;23;20033;-89
2023/04/22 02:09:17;;;;;;;0.38;0.38;;;;;;;6.48;100.00;99721.66;6101733;23;20130;-89
2023/04/22 02:11:43;;;;;;;1.05;1.05;;;;;;;6.38;100.00;99714.34;6102416;23;20116;-89
2023/04/22 02:14:08;;;;;;;0.17;0.17;;;;;;;6.39;100.00;99727.69;6102205;23;20112;-89
2023/04/22 02:16:34;;;;;;;0.40;0.40;;;;;;;6.35;100.00;99718.69;6102534;23;20041;-92
2023/04/22 02:19:00;;;;;;;0.45;0.43;;;;;;;6.37;100.00;99727.34;6102408;23;20017;-92
2023/04/22 02:21:28;;;;;;;1.75;1.55;;;;;;;6.34;100.00;99717.16;6079581;23;20020;-95
2023/04/22 02:23:54;;;;;;;0.73;0.57;;;;;;;6.31;100.00;99717.97;6103228;23;20020;-92
2023/04/22 02:26:19;;;;;;;0.43;0.43;;;;;;;6.31;100.00;99723.47;6103031;23;20081;-93
2023/04/22 02:28:45;;;;;;;0.45;0.43;;;;;;;6.29;100.00;99719.59;6127427;23;20021;-92
2023/04/22 02:31:10;;;;;;;0.28;0.28;;;;;;;6.23;100.00;99711.00;6102794;23;20056;-93
2023/04/22 02:33:38;;;;;;;1.67;1.58;;;;;;;6.29;100.00;99725.88;6127857;23;20022;-93
2023/04/22 02:36:07;;;;;;;0.65;0.65;;;;;;;6.20;100.00;99706.34;6081503;23;20025;-91
2023/04/22 02:38:33;;;;;;;0.52;0.52;;;;;;;6.33;100.00;99725.84;6127154;23;20056;-92
2023/04/22 02:40:58;;;;;;;0.60;0.60;;;;;;;6.26;100.00;99715.72;6127475;23;20013;-92
2023/04/22 02:43:24;;;;;;;0.45;0.20;;;;;;;6.29;100.00;99706.59;6128021;23;20436;-93
2023/04/22 02:45:50;;;;;;;0.63;0.63;;;;;;;6.22;100.00;99712.22;6078940;23;20336;-93
2023/04/22 02:48:16;;;;;;;0.73;0.73;;;;;;;6.16;100.00;99705.59;6078498;23;20025;-93
2023/04/22 02:50:42;;;;;;;0.13;0.13;;;;;;;6.13;100.00;99711.16;6102831;23;20072;-93
2023/04/22 02:53:07;;;;;;;2.25;1.33;;;;;;;6.13;100.00;99706.44;6101737;23;20027;-93
2023/04/22 02:55:33;;;;;;;0.50;0.50;;;;;;;6.09;100.00;99711.22;6103261;23;20017;-94
2023/04/22 02:57:59;;;;;;;0.47;0.47;;;;;;;6.04;100.00;99701.44;6102729;23;20065;-93
2023/04/22 03:00:24;;;;;;;0.17;0.17;;;;;;;6.06;100.00;99712.84;6127386;23;20478;-92
2023/04/22 03:02:50;;;;;;;2.30;1.45;;;;;;;6.01;100.00;99718.81;6102712;23;20010;-94
2023/04/22 03:05:19;;;;;;;0.22;0.22;;;;;;;6.01;100.00;99723.53;6103202;23;20022;-92
2023/04/22 03:07:46;;;;;;;1.02;0.93;;;;;;;5.87;100.00;99707.19;6151398;23;20021;-92
2023/04/22 03:10:13;;;;;;;0.82;0.82;;;;;;;5.89;100.00;99715.81;6103613;23;20347;-94
2023/04/22 03:12:39;;;;;;;0.32;0.32;;;;;;;5.98;100.00;99721.59;6103180;23;20017;-94
2023/04/22 03:15:06;;;;;;;0.13;0.13;;;;;;;5.89;100.00;99718.56;6102026;23;20466;-89
2023/04/22 03:17:31;;;;;;;0.17;0.17;;;;;;;5.83;100.00;99720.19;6124974;23;20021;-89
2023/04/22 03:20:00;;;;;;;0.20;0.20;;;;;;;5.85;100.00;99718.59;6126162;23;20017;-90
2023/04/22 03:22:25;;;;;;;0.47;0.47;;;;;;;5.83;100.00;99722.94;6101006;23;20044;-90
2023/04/22 03:24:54;;;;;;;0.65;0.65;;;;;;;5.78;100.00;99728.91;6101936;23;20017;-90
2023/04/22 03:27:20;;;;;;;0.52;0.50;;;;;;;5.74;100.00;99722.66;6125685;23;20013;-89
2023/04/22 03:29:46;;;;;;;1.40;1.30;;;;;;;5.68;100.00;99711.31;6126292;23;20440;-94
2023/04/22 03:32:12;;;;;;;0.20;0.20;;;;;;;5.69;100.00;99718.41;6102150;23;20025;-93
2023/04/22 03:34:37;;;;;;;0.30;0.30;;;;;;;5.60;100.00;99715.34;6102893;23;20009;-92
2023/04/22 03:37:06;;;;;;;0.22;0.22;;;;;;;5.56;100.00;99718.16;6103781;23;20331;-93
2023/04/22 03:39:31;;;;;;;0.10;0.10;;;;;;;5.57;100.00;99729.94;6102803;23;20013;-92
2023/04/22 03:41:57;;;;;;;0.70;0.70;;;;;;;5.54;100.00;99723.28;6102326;23;20009;-93
2023/04/22 03:44:23;;;;;;;0.43;0.43;;;;;;;5.52;100.00;99722.91;6102866;23;20359;-93
2023/04/22 03:46:48;;;;;;;0.95;0.90;;;;;;;5.53;100.00;99729.97;6126689;23;20006;-93
2023/04/22 03:49:19;;;;;;;0.52;0.52;;;;;;;5.53;100.00;99734.69;6103252;23;20041;-93
2023/04/22 03:51:45;;;;;;;0.57;0.57;;;;;;;5.50;100.00;99741.78;6102831;23;20021;-93
2023/04/22 03:54:15;;;;;;;0.10;0.10;;;;;;;5.45;100.00;99739.50;6127705;23;20014;-94
2023/04/22 03:56:50;;;;;;;0.05;0.05;;;;;;;5.35;100.00;99729.38;6127086;23;20477;-92
2023/04/22 03:59:16;;;;;;;0.32;0.30;;;;;;;5.41;100.00;99744.25;6102263;23;20120;-88
2023/04/22 04:01:42;;;;;;;0.35;0.35;;;;;;;5.38;100.00;99731.31;6100325;23;20017;-89
2023/04/22 04:04:09;;;;;;;1.02;0.52;;;;;;;5.38;100.00;99736.06;6125195;23;20444;-89
2023/04/22 04:06:43;;;;;;;1.05;1.05;;;;;;;5.46;100.00;99743.03;6102593;23;20017;-89
2023/04/22 04:09:09;;;;;;;0.63;0.63;;;;;;;5.46;100.00;99741.03;6124615;23;20017;-89
2023/04/22 04:11:35;;;;;;;0.10;0.10;;;;;;;5.51;100.00;99743.34;6126577;23;20028;-93
2023/04/22 04:14:02;;;;;;;0.40;0.40;;;;;;;5.50;100.00;99730.03;6126733;23;20538;-93
2023/04/22 04:16:40;;;;;;;0.40;0.40;;;;;;;5.59;100.00;99739.34;6126565;23;20020;-94
2023/04/22 04:19:11;;;;;;;0.75;0.75;;;;;;;5.59;100.00;99746.81;6104506;23;20598;-94
2023/04/22 04:21:38;;;;;;;0.85;0.85;;;;;;;5.59;100.00;99727.53;6102260;23;20669;-93
2023/04/22 04:24:05;;;;;;;0.50;0.47;;;;;;;5.65;100.00;99745.19;6126894;23;20009;-95
2023/04/22 04:26:34;;;;;;;0.40;0.40;;;;;;;5.70;100.00;99738.44;6079829;23;20041;-93
2023/04/22 04:29:09;;;;;;;0.93;0.45;;;;;;;5.76;100.00;99740.31;6149047;23;20021;-89
2023/04/22 04:31:38;;;;;;;2.50;1.38;;;;;;;5.87;100.00;99742.97;6101955;23;20428;-89
2023/04/22 04:34:04;;;;;;;0.35;0.35;;;;;;;5.98;100.00;99749.91;6101092;23;20010;-89
2023/04/22 04:36:31;;;;;;;0.20;0.20;;;;;;;6.07;100.00;99741.13;6075767;23;20025;-88
2023/04/22 04:39:08;;;;;;;0.20;0.20;;;;;;;6.16;100.00;99737.88;6103191;23;20010;-92
2023/04/22 04:41:34;;;;;;;0.70;0.65;;;;;;;6.20;100.00;99736.63;6126149;23;20084;-92
2023/04/22 04:44:02;;;;;;;0.20;0.20;;;;;;;6.24;100.00;99737.38;6125378;23;20021;-92
2023/04/22 04:46:33;;;;;;;0.30;0.30;;;;;;;6.19;100.00;99720.53;6103183;23;20413;-92
2023/04/22 04:48:59;;;;;;;0.30;0.22;;;;;;;6.29;100.00;99747.13;6098452;23;20022;-93
2023/04/22 04:51:28;;;;;;;0.65;0.65;;;;;;;6.30;100.00;99738.47;6148706;23;20300;-92
2023/04/22 04:53:57;;;;;;;0.75;0.75;;;;;;;6.36;100.00;99741.53;6124275;23;20017;-93
2023/04/22 04:56:26;;;;;;;0.82;0.80;;;;;;;6.48;100.00;99754.72;6124375;23;20048;-93
2023/04/22 04:58:52;;;;;;;0.32;0.32;;;;;;;6.55;100.00;99755.41;6100175;23;20104;-91
2023/04/22 05:01:21;;;;;;;0.20;0.20;;;;;;;6.66;100.00;99747.00;6100260;23;20014;-93
2023/04/22 05:03:47;;;;;;;0.30;0.30;;;;;;;6.79;100.00;99744.44;6099570;23;20013;-93
2023/04/22 05:06:15;;;;;;;1.38;1.27;;;;;;;6.90;100.00;99739.50;6100132;23;20052;-92
2023/04/22 05:08:46;;;;;;;0.80;0.30;;;;;;;7.07;100.00;99741.19;6103050;23;20048;-92
2023/04/22 05:11:12;;;;;;;0.15;0.15;;;;;;;7.26;100.00;99748.72;6100623;23;20097;-93
2023/04/22 05:13:38;;;;;;;2.40;1.73;;;;;;;7.39;100.00;99740.63;6123786;23;20045;-93
2023/04/22 05:16:06;;;;;;;0.40;0.40;;;;;;;7.70;100.00;99755.00;6098142;23;20013;-90
2023/04/22 05:18:32;;;;;;;0.60;0.60;;;;;;;7.78;100.00;99734.34;6095165;23;20080;-90
2023/04/22 05:21:03;;;;;;;0.30;0.30;;;;;;;8.22;100.00;99757.88;6117156;23;20359;-90
2023/04/22 05:23:30;;;;;;;1.55;0.85;;;;;;;8.59;100.00;99749.16;6120062;23;20009;-90
2023/04/22 05:25:57;;;;;;;1.10;1.08;;;;;;;8.81;100.00;99738.41;6098980;23;20021;-90
2023/04/22 05:28:23;;;;;;;0.55;0.52;;;;;;;8.91;100.00;99742.88;6098946;23;20021;-90
2023/04/22 05:30:53;;;;;;;4.13;1.40;;;;;;;9.03;100.00;99744.94;6099432;23;20026;-90
2023/04/22 05:33:18;;;;;;;0.20;0.20;;;;;;;9.12;100.00;99736.81;6097881;23;20044;-90
2023/04/22 05:35:44;;;;;;;1.17;0.50;;;;;;;9.44;100.00;99757.34;6099379;23;20009;-91
2023/04/22 05:38:10;;;;;;;0.10;0.10;;;;;;;9.56;100.00;99746.31;6096948;23;20021;-90
2023/04/22 05:40:39;;;;;;;0.30;0.30;;;;;;;9.68;100.00;99744.81;6123292;23;20025;-91
2023/04/22 05:43:05;;;;;;;0.28;0.28;;;;;;;9.98;100.00;99758.22;6134125;23;20428;-90
2023/04/22 05:45:32;;;;;;;1.10;1.00;;;;;;;10.36;100.00;99766.63;6122389;23;20045;-91
2023/04/22 05:47:58;;;;;;;0.65;0.57;;;;;;;10.60;100.00;99764.28;6095386;23;20036;-89
2023/04/22 05:50:27;;;;;;;0.80;0.65;;;;;;;10.84;100.00;99761.97;6096837;23;20021;-90
2023/04/22 05:52:59;;;;;;;0.43;0.38;;;;;;;11.10;100.00;99758.72;6146879;23;20081;-93
2023/04/22 05:55:26;;;;;;;0.65;0.65;;;;;;;11.38;100.00;99767.31;6097965;23;20013;-92
2023/04/22 05:57:52;;;;;;;1.90;0.80;;;;;;;11.56;100.00;99761.94;6123152;23;20017;-92
2023/04/22 06:00:35;;;;;;;1.00;0.98;;;;;;;11.77;100.00;99755.63;6100786;23;20036;-91
2023/04/22 06:03:15;;;;;;;0.22;0.22;;;;;;;11.92;100.00;99753.91;6104301;23;20440;-92
2023/04/22 06:05:41;;;;;;;0.70;0.47;;;;;;;12.14;100.00;99767.75;6124156;23;20057;-92
2023/04/22 06:08:07;;;;;;;0.47;0.47;;;;;;;12.29;100.00;99768.03;6099273;23;20022;-92
2023/04/22 06:10:34;;;;;;;0.35;0.35;;;;;;;12.42;100.00;99765.91;6100036;23;20096;-93
2023/04/22 06:13:00;;;;;;;0.30;0.30;;;;;;;12.38;100.00;99759.72;6098266;23;20044;-92
2023/04/22 06:15:26;;;;;;;1.23;1.05;;;;;;;12.61;100.00;99756.44;6099397;23;20022;-92
2023/04/22 06:17:51;;;;;;;0.90;0.90;;;;;;;12.95;100.00;99770.16;6098905;23;20044;-92
2023/04/22 06:20:17;;;;;;;0.35;0.35;;;;;;;13.19;100.00;99783.53;6148388;23;20008;-92
2023/04/22 06:22:43;;;;;;;1.40;0.98;;;;;;;13.38;100.00;99777.56;6123527;23;20009;-91
2023/04/22 06:25:09;;;;;;;2.50;1.45;;;;;;;13.41;100.00;99759.13;6122864;23;20022;-92
2023/04/22 06:27:35;;;;;;;0.93;0.55;;;;;;;13.77;100.00;99783.47;6100430;23;20010;-92
2023/04/22 06:30:01;;;;;;;1.20;1.13;;;;;;;13.97;100.00;99787.31;6124725;23;20013;-92
2023/04/22 06:32:30;;;;;;;0.73;0.70;;;;;;;14.23;100.00;99781.41;6100645;23;20452;-91
2023/04/22 06:34:56;;;;;;;0.35;0.35;;;;;;;14.39;95.78;99778.28;6100639;23;20056;-91
2023/04/22 06:37:21;;;;;;;0.20;0.20;;;;;;;14.25;96.75;99790.06;6100441;23;20068;-93
2023/04/22 06:39:47;;;;;;;0.17;0.17;;;;;;;14.35;97.78;99786.06;6125015;23;20347;-91
2023/04/22 06:42:38;;;;;;;2.97;1.02;;;;;;;14.76;98.17;99776.91;6129572;23;20426;-92
2023/04/22 06:45:24;;;;;;;0.85;0.63;;;;;;;15.04;94.56;99791.53;6100340;23;20116;-92
2023/04/22 06:48:19;;;;;;;1.20;0.95;;;;;;;15.28;88.25;99780.38;6074337;23;20053;-91
2023/04/22 06:51:11;;;;;;;1.52;1.42;;;;;;;15.69;89.93;99779.47;6094079;23;20017;-92
2023/04/22 06:53:37;;;;;;;1.98;0.93;;;;;;;15.86;87.13;99774.97;6123105;23;20333;-91
2023/04/22 06:56:03;;;;;;;1.85;1.42;;;;;;;16.09;86.92;99787.38;6099435;23;20351;-92
2023/04/22 06:58:28;;;;;;;0.57;0.40;;;;;;;16.40;82.09;99778.50;6123261;23;20017;-92
2023/04/22 07:00:54;;;;;;;1.17;1.08;;;;;;;16.52;78.66;99774.63;6123387;23;20861;-91
2023/04/22 07:03:20;;;;;;;0.65;0.52;;;;;;;16.63;78.94;99774.06;6123513;23;20017;-92
2023/04/22 07:05:55;;;;;;;1.58;0.52;;;;;;;16.85;78.86;99762.44;6100015;23;20124;-92
2023/04/22 07:08:22;;;;;;;0.60;0.60;;;;;;;17.04;75.46;99777.75;6123560;23;20434;-91
2023/04/22 07:10:48;;;;;;;0.45;0.45;;;;;;;17.27;74.80;99777.56;6098018;23;20021;-91
2023/04/22 07:13:32;;;;;;;0.85;0.40;;;;;;;17.54;73.82;99790.44;6147819;23;20013;-90
2023/04/22 07:15:59;;;;;;;0.82;0.80;;;;;;;17.46;69.32;99789.31;6099022;23;20025;-91
2023/04/22 07:18:25;;;;;;;0.90;0.43;;;;;;;17.56;69.34;99771.06;6124066;23;20432;-91
2023/04/22 07:20:50;;;;;;;0.95;0.90;;;;;;;17.57;67.43;99780.25;6122431;23;20021;-91
2023/04/22 07:23:16;;;;;;;1.35;1.13;;;;;;;18.01;65.70;99782.84;6099405;23;20518;-90
2023/04/22 07:25:42;;;;;;;0.73;0.70;;;;;;;18.01;63.31;99777.22;6123282;23;20176;-90
2023/04/22 07:28:07;;;;;;;1.95;1.10;;;;;;;18.30;65.46;99782.63;6147086;23;20009;-91
2023/04/22 07:30:33;;;;;;;2.67;1.38;;;;;;;18.43;62.99;99777.41;6124057;23;20012;-91
2023/04/22 07:32:58;;;;;;;1.13;1.00;;;;;;;18.68;61.47;99780.69;6097915;23;20032;-90
2023/04/22 07:35:24;;;;;;;1.05;1.02;;;;;;;18.74;60.10;99789.91;6124712;23;20076;-91
2023/04/22 07:37:50;;;;;;;1.63;1.27;;;;;;;19.00;61.33;99788.59;6073995;23;20049;-90
2023/04/22 07:40:15;;;;;;;0.65;0.63;;;;;;;19.35;59.92;99773.44;6123691;23;20029;-90
2023/04/22 07:42:41;;;;;;;0.52;0.40;;;;;;;19.45;62.32;99769.94;6121652;23;20017;-90
2023/04/22 07:45:07;;;;;;;0.88;0.85;;;;;;;19.44;57.67;99774.06;6099129;23;20018;-91
2023/04/22 07:47:32;;;;;;;1.85;1.02;;;;;;;19.21;54.24;99786.41;6098263;23;20017;-91
2023/04/22 07:49:58;;;;;;;0.32;0.32;;;;;;;19.03;56.41;99792.44;6123074;23;20053;-90
2023/04/22 07:52:24;;;;;;;1.15;1.08;;;;;;;18.90;59.90;99789.28;6098593;23;20013;-91
2023/04/22 07:54:49;;;;;;;0.50;0.50;;;;;;;19.09;53.87;99787.59;6123197;23;20339;-92
2023/04/22 07:57:15;;;;;;;0.60;0.60;;;;;;;19.48;52.34;99785.84;6122313;23;20014;-92
2023/04/22 07:59:41;;;;;;;1.40;1.10;;;;;;;20.00;46.78;99782.69;6097909;23;20428;-93
2023/04/22 08:02:06;;;;;;;1.95;1.13;;;;;;;20.00;44.83;99793.94;6097595;23;20020;-91
2023/04/22 08:04:32;;;;;;;0.32;0.32;;;;;;;19.93;46.66;99797.25;6075276;23;20032;-92
2023/04/22 08:06:57;;;;;;;2.35;0.90;;;;;;;20.09;47.25;99785.28;6146138;23;20017;-92
2023/04/22 08:09:23;;;;;;;0.80;0.65;;;;;;;20.31;44.88;99790.97;6098933;23;20021;-90
2023/04/22 08:11:48;;;;;;;0.15;0.05;;;;;;;20.44;42.15;99791.25;6121655;23;20014;-92
2023/04/22 08:14:14;;;;;;;1.17;0.70;;;;;;;20.07;41.48;99787.03;6097526;23;20031;-92
2023/04/22 08:16:41;;;;;;;1.33;0.95;;;;;;;20.29;41.99;99799.16;6098499;23;20021;-91
2023/04/22 08:19:07;;;;;;;2.40;0.88;;;;;;;19.96;41.14;99779.34;6122532;23;20092;-92
2023/04/22 08:21:32;;;;;;;0.73;0.73;;;;;;;20.34;42.92;99795.56;6075433;23;20523;-91
2023/04/22 08:23:58;;;;;;;0.45;0.38;;;;;;;20.57;41.00;99792.78;6098123;23;20084;-92
2023/04/22 08:26:24;;;;;;;0.85;0.85;;;;;;;20.32;41.06;99791.75;6147831;23;20022;-91
2023/04/22 08:28:50;;;;;;;1.42;1.33;;;;;;;20.45;41.29;99789.19;6095151;23;20094;-92
2023/04/22 08:31:15;;;;;;;0.20;0.20;;;;;;;20.61;40.19;99793.31;6121472;23;20100;-92
2023/04/22 08:33:41;;;;;;;1.98;0.65;;;;;;;20.39;39.58;99792.00;6123528;23;20384;-91
2023/04/22 08:36:07;;;;;;;0.30;0.30;;;;;;;20.60;40.54;99788.94;6122371;23;20033;-92
2023/04/22 08:38:33;;;;;;;2.10;1.42;;;;;;;21.02;37.59;99785.06;6147579;23;20021;-91
2023/04/22 08:40:59;;;;;;;0.77;0.77;;;;;;;20.51;37.72;99786.38;6121697;23;20458;-92
2023/04/22 08:43:25;;;;;;;1.15;0.70;;;;;;;20.05;38.43;99796.00;6147184;23;20402;-91
2023/04/22 08:45:51;;;;;;;0.50;0.43;;;;;;;20.10;37.62;99791.69;6097244;23;20120;-92
2023/04/22 08:48:18;;;;;;;0.10;0.10;;;;;;;20.15;39.63;99788.84;6098319;23;20126;-91
2023/04/22 08:50:46;;;;;;;5.38;0.88;;;;;;;20.43;38.14;99791.75;6122635;23;20080;-91
2023/04/22 08:53:12;;;;;;;0.40;0.40;;;;;;;20.91;39.17;99780.19;6098416;23;20009;-91
2023/04/22 08:55:40;;;;;;;1.23;1.13;;;;;;;21.27;38.74;99790.41;6098743;23;20095;-91
2023/04/22 08:58:06;;;;;;;5.05;0.60;;;;;;;21.10;38.69;99791.72;6121090;23;20009;-91
2023/04/22 09:00:33;;;;;;;0.60;0.60;;;;;;;20.91;39.65;99791.47;6148156;23;20406;-90
2023/04/22 09:03:01;;;;;;;4.82;1.13;;;;;;;21.10;40.29;99781.22;6121660;23;20018;-91
2023/04/22 09:05:28;;;;;;;0.30;0.30;;;;;;;21.36;39.33;99795.78;6147321;23;20274;-90
2023/04/22 09:07:54;;;;;;;0.93;0.45;;;;;;;21.53;39.58;99789.31;6121542;23;20036;-91
2023/04/22 09:10:19;;;;;;;1.50;1.00;;;;;;;21.62;37.18;99789.03;6097931;23;20096;-91
2023/04/22 09:12:46;;;;;;;1.80;0.95;;;;;;;21.52;38.92;99782.91;6121154;23;20104;-91
2023/04/22 09:15:11;;;;;;;0.47;0.47;;;;;;;21.73;38.26;99789.00;6122324;23;20033;-91
2023/04/22 09:17:37;;;;;;;0.75;0.75;;;;;;;21.95;39.79;99783.28;6121902;23;20013;-91
2023/04/22 09:20:05;;;;;;;0.95;0.82;;;;;;;21.69;41.30;99782.84;6122359;23;20021;-91
2023/04/22 09:23:01;;;;;;;1.17;0.75;;;;;;;22.17;40.32;99788.78;6147201;23;20018;-90
2023/04/22 09:25:27;;;;;;;3.75;2.05;;;;;;;22.18;38.94;99783.91;6096547;23;20021;-90
2023/04/22 09:27:57;;;;;;;0.47;0.47;;;;;;;21.92;38.89;99792.78;6121622;23;20100;-91
2023/04/22 09:30:31;;;;;;;9.00;1.02;;;;;;;21.38;38.68;99784.00;6098441;23;20028;-91
2023/04/22 09:32:58;;;;;;;0.55;0.50;;;;;;;21.15;39.53;99783.28;6121461;23;20017;-91
2023/04/22 09:35:29;;;;;;;0.90;0.90;;;;;;;21.52;39.40;99779.31;6098136;23;20025;-91
2023/04/22 09:37:56;;;;;;;0.57;0.57;;;;;;;21.84;39.11;99777.63;6122447;23;20112;-90
2023/04/22 09:40:22;;;;;;;1.67;1.42;;;;;;;21.99;38.56;99775.28;6097880;23;20395;-93
2023/04/22 09:42:52;;;;;;;0.32;0.32;;;;;;;22.27;37.70;99775.88;6145916;23;20356;-91
2023/04/22 09:45:26;;;;;;;0.63;0.63;;;;;;;22.43;37.68;99773.47;6121872;23;20029;-92
2023/04/22 09:47:53;;;;;;;1.67;1.58;;;;;;;22.43;36.83;99759.34;6122153;23;20044;-92
2023/04/22 09:50:20;;;;;;;0.25;0.22;;;;;;;22.83;36.44;99775.47;6146945;23;20096;-92
2023/04/22 09:52:59;;;;;;;0.77;0.70;;;;;;;22.88;37.16;99769.00;6146771;23;20076;-92
2023/04/22 09:55:26;;;;;;;1.08;0.98;;;;;;;22.95;34.87;99757.09;6146927;23;20033;-92
2023/04/22 09:57:54;;;;;;;1.30;1.15;;;;;;;22.57;35.04;99749.69;6122819;23;20040;-90
2023/04/22 10:00:21;;;;;;;0.32;0.32;;;;;;;22.62;35.40;99763.03;6121704;23;20022;-90
2023/04/22 10:02:47;;;;;;;1.35;0.90;;;;;;;22.73;35.13;99774.25;6120719;23;20021;-91
2023/04/22 10:05:13;;;;;;;1.15;0.90;;;;;;;22.77;35.76;99758.53;6121434;23;20505;-90
2023/04/22 10:07:38;;;;;;;1.58;0.73;;;;;;;22.40;35.78;99757.56;6121652;23;20092;-90
2023/04/22 10:10:07;;;;;;;3.20;0.95;;;;;;;22.65;36.27;99757.06;6146671;23;20458;-90
2023/04/22 10:12:34;;;;;;;2.40;1.60;;;;;;;22.39;36.60;99750.38;6096763;23;20067;-90
2023/04/22 10:15:00;;;;;;;0.65;0.50;;;;;;;22.62;37.63;99757.38;6147776;23;20080;-91
2023/04/22 10:17:29;;;;;;;0.52;0.40;;;;;;;22.86;36.61;99748.19;6110394;23;20024;-90
2023/04/22 10:19:55;;;;;;;0.70;0.70;;;;;;;23.27;36.03;99745.94;6117707;23;20403;-90
2023/04/22 10:22:21;;;;;;;0.65;0.65;;;;;;;23.29;35.40;99746.19;6127155;23;20013;-90
2023/04/22 10:24:46;;;;;;;1.45;1.38;;;;;;;22.81;34.94;99741.28;6106954;23;20059;-92
2023/04/22 10:27:12;;;;;;;2.67;1.15;;;;;;;22.61;33.41;99728.31;6124184;23;20347;-92
2023/04/22 10:29:41;;;;;;;0.77;0.77;;;;;;;22.71;35.16;99731.63;6150550;23;20008;-93
2023/04/22 10:32:09;;;;;;;0.63;0.63;;;;;;;22.52;33.71;99739.22;6101672;23;20013;-92
2023/04/22 10:34:36;;;;;;;0.65;0.65;;;;;;;22.42;34.94;99732.34;6150953;23;20471;-94
2023/04/22 10:37:10;;;;;;;0.70;0.70;;;;;;;22.33;35.05;99734.22;6126205;23;20017;-94
2023/04/22 10:39:37;;;;;;;0.73;0.73;;;;;;;22.41;34.61;99728.00;6075799;23;20439;-92
2023/04/22 10:42:03;;;;;;;3.15;1.33;;;;;;;22.73;35.78;99731.84;6122935;23;20036;-91
2023/04/22 10:44:44;;;;;;;1.58;1.30;;;;;;;23.03;33.60;99729.75;6123889;23;20075;-91
2023/04/22 10:47:10;;;;;;;0.57;0.57;;;;;;;22.96;33.78;99730.34;6123168;23;20028;-91
2023/04/22 10:49:36;;;;;;;1.00;0.90;;;;;;;23.12;32.76;99723.75;6122596;23;20006;-91
2023/04/22 10:52:04;;;;;;;0.80;0.73;;;;;;;23.15;31.61;99730.41;6098643;23;20444;-91
2023/04/22 10:54:32;;;;;;;2.50;1.42;;;;;;;23.68;32.15;99720.25;6100645;23;20514;-91
2023/04/22 10:57:08;;;;;;;1.30;1.17;;;;;;;23.94;31.67;99720.38;6123193;23;20076;-91
2023/04/22 10:59:54;;;;;;;1.63;1.50;;;;;;;23.34;30.03;99719.09;6123767;23;20022;-90
2023/04/22 11:02:21;;;;;;;0.65;0.65;;;;;;;23.56;31.20;99704.72;6122255;23;20093;-90
2023/04/22 11:04:47;;;;;;;0.82;0.82;;;;;;;23.60;30.71;99708.00;6123398;23;20017;-90
2023/04/22 11:07:21;;;;;;;1.85;0.95;;;;;;;23.81;30.96;99711.84;6122334;23;20514;-91
2023/04/22 11:09:49;;;;;;;10.27;0.85;;;;;;;23.61;29.67;99709.53;6149236;23;20443;-90
2023/04/22 11:12:33;;;;;;;1.05;0.98;;;;;;;23.26;29.85;99718.94;6122786;23;20060;-91
2023/04/22 11:15:13;;;;;;;0.63;0.55;;;;;;;22.62;31.84;99707.25;6147932;23;20025;-90
2023/04/22 11:17:41;;;;;;;0.82;0.82;;;;;;;22.99;31.49;99717.97;6098584;23;20072;-90
2023/04/22 11:20:08;;;;;;;1.27;1.17;;;;;;;23.28;31.36;99712.75;6123032;23;20097;-90
2023/04/22 11:22:35;;;;;;;1.45;1.35;;;;;;;23.62;30.45;99709.00;6099208;23;20340;-90
2023/04/22 11:25:30;;;;;;;0.98;0.57;;;;;;;23.97;29.86;99707.22;6097483;23;20407;-90
2023/04/22 11:27:56;;;;;;;1.35;1.25;;;;;;;23.66;28.88;99695.28;6108645;23;20330;-91
2023/04/22 11:30:24;;;;;;;0.80;0.80;;;;;;;23.37;30.01;99675.63;6122312;23;20036;-92
2023/04/22 11:32:55;;;;;;;0.50;0.43;;;;;;;23.60;28.30;99693.84;6096876;23;20018;-94
2023/04/22 11:35:26;;;;;;;0.20;0.20;;;;;;;23.48;29.80;99701.72;6097790;23;20344;-91
2023/04/22 11:37:57;;;;;;;0.70;0.70;;;;;;;23.83;30.18;99683.72;6097028;23;20017;-92
2023/04/22 11:40:37;;;;;;;1.23;1.05;;;;;;;24.06;29.74;99696.25;6122007;23;20091;-91
2023/04/22 11:43:05;;;;;;;0.60;0.60;;;;;;;24.38;30.34;99673.63;6122362;23;20014;-91
2023/04/22 11:45:32;;;;;;;0.98;0.77;;;;;;;24.11;28.27;99697.47;6074325;23;20029;-90
2023/04/22 11:47:58;;;;;;;0.77;0.52;;;;;;;23.96;28.70;99661.13;6096285;23;20028;-91
2023/04/22 11:50:26;;;;;;;0.73;0.73;;;;;;;24.21;29.32;99695.03;6121956;23;20033;-91
2023/04/22 11:53:11;;;;;;;0.32;0.32;;;;;;;24.44;29.75;99690.53;6123786;23;20001;-93
2023/04/22 11:55:38;;;;;;;0.75;0.70;;;;;;;23.95;28.62;99687.94;6148000;23;20443;-92
2023/04/22 11:58:12;;;;;;;0.70;0.50;;;;;;;23.43;28.64;99688.41;6075184;23;20024;-93
2023/04/22 12:00:51;;;;;;;1.75;1.35;;;;;;;23.95;30.09;99692.81;6098550;23;20024;-92
2023/04/22 12:03:34;;;;;;;0.38;0.28;;;;;;;23.80;29.96;99692.53;6074645;23;20025;-91
2023/04/22 12:06:02;;;;;;;0.88;0.77;;;;;;;23.92;29.50;99672.03;6121687;23;20444;-90
2023/04/22 12:08:32;;;;;;;1.02;0.93;;;;;;;24.44;29.42;99687.69;6099113;23;20048;-91
2023/04/22 12:11:00;;;;;;;0.25;0.25;;;;;;;24.49;30.17;99672.66;6121545;23;20096;-90
2023/04/22 12:13:31;;;;;;;1.52;0.63;;;;;;;24.63;29.83;99672.13;6097852;23;20113;-90
2023/04/22 12:16:04;;;;;;;1.02;0.93;;;;;;;24.84;29.89;99674.34;6122416;23;20026;-91
2023/04/22 12:18:31;;;;;;;0.30;0.30;;;;;;;24.72;28.99;99668.09;6099121;23;20071;-91
2023/04/22 12:21:03;;;;;;;0.47;0.45;;;;;;;23.30;30.52;99679.78;6122168;23;20017;-93
2023/04/22 12:23:29;;;;;;;2.78;1.73;;;;;;;23.46;30.94;99666.75;6148293;23;20131;-93
2023/04/22 12:25:54;;;;;;;2.45;1.08;;;;;;;23.75;31.32;99668.66;6123314;23;20120;-92
2023/04/22 12:28:20;;;;;;;1.00;0.90;;;;;;;23.40;29.80;99677.38;6123081;23;20060;-93
2023/04/22 12:30:46;;;;;;;0.47;0.47;;;;;;;23.02;30.28;99643.34;6122174;23;20025;-94
2023/04/22 12:33:11;;;;;;;0.80;0.60;;;;;;;22.95;30.33;99660.16;6121858;23;20021;-91
2023/04/22 12:35:37;;;;;;;1.45;0.98;;;;;;;22.95;30.71;99660.94;6149269;23;20460;-91
2023/04/22 12:38:02;;;;;;;0.40;0.35;;;;;;;23.41;30.85;99661.91;6122598;23;20029;-91